Time;durP1;ratioP1;P1;durP2;ratioP2;P2;SDS_P1;SDS_P2;PMS_P1;PMS_P2;Temp;Humidity;BMP_temperature;BMP_pressure;BME280_temperature;BME280_humidity;BME280_pressure;Samples;Min_cycle;Max_cycle;Signal;HPM_P1;HPM_P2
2022/06/05 00:01:36;;;;;;;;;;;;;;;-149.78;100.00;50301.28;4926941;28;19923;-75
2022/06/05 00:04:20;;;;;;;;;;;;;;;-149.78;100.00;50264.13;4941418;28;19955;-75
2022/06/05 00:06:55;;;;;;;;;;;;;;;-149.78;100.00;50305.22;4939555;28;19919;-75
2022/06/05 00:09:26;;;;;;;;;;;;;;;-149.78;100.00;50303.25;4928210;28;19933;-76
2022/06/05 00:12:07;;;;;;;;;;;;;;;-149.78;100.00;50275.88;4941889;28;20001;-75
2022/06/05 00:14:37;;;;;;;;;;;;;;;-149.78;100.00;50303.25;4925133;29;20370;-75
2022/06/05 00:17:04;;;;;;;;;;;;;;;-149.78;100.00;50279.78;4923799;29;19972;-76
2022/06/05 00:19:30;;;;;;;;;;;;;;;-149.78;100.00;50248.50;4925827;29;20024;-76
2022/06/05 00:21:56;;;;;;;;;;;;;;;-149.78;100.00;50271.97;4923716;29;20413;-75
2022/06/05 00:24:21;;;;;;;;;;;;;;;-149.78;100.00;50299.34;4935782;28;19926;-76
2022/06/05 00:27:01;;;;;;;;;;;;;;;-149.78;100.00;50322.81;4925041;29;19933;-75
2022/06/05 00:29:43;;;;;;;;;;;;;;;-149.78;100.00;50299.34;4924131;29;20085;-76
2022/06/05 00:32:11;;;;;;;;;;;;;;;-149.78;100.00;50279.78;4924254;29;19923;-76
2022/06/05 00:34:37;;;;;;;;;;;;;;;-149.78;100.00;50293.47;4924843;29;19922;-75
2022/06/05 00:37:08;;;;;;;;;;;;;;;-149.78;100.00;50313.03;4918851;29;20242;-76
2022/06/05 00:39:43;;;;;;;;;;;;;;;-149.78;100.00;50279.78;4937243;28;19933;-75
2022/06/05 00:42:09;;;;;;;;;;;;;;;-149.78;100.00;50271.97;4923176;29;19914;-75
2022/06/05 00:44:37;;;;;;;;;;;;;;;-149.78;100.00;50295.44;4922665;29;19993;-75
2022/06/05 00:47:04;;;;;;;;;;;;;;;-149.78;100.00;50297.38;4923211;29;19938;-75
2022/06/05 00:49:36;;;;;;;;;;;;;;;-149.78;100.00;50271.97;4924689;29;20554;-74
2022/06/05 00:52:02;;;;;;;;;;;;;;;-149.78;100.00;50303.25;4938865;28;19957;-74
2022/06/05 00:54:28;;;;;;;;;;;;;;;-149.78;100.00;50277.81;4922233;28;19910;-74
2022/06/05 00:56:54;;;;;;;;;;;;;;;-149.78;100.00;50307.16;4922767;28;19919;-74
2022/06/05 00:59:20;;;;;;;;;;;;;;;-149.78;100.00;50287.59;4918883;29;19974;-75
2022/06/05 01:01:47;;;;;;;;;;;;;;;-149.78;100.00;50283.69;4922780;29;20356;-75
2022/06/05 01:04:12;;;;;;;;;;;;;;;-149.78;100.00;50252.41;4924671;29;20536;-76
2022/06/05 01:06:38;;;;;;;;;;;;;;;-149.78;100.00;50291.50;4920266;28;20282;-75
2022/06/05 01:09:05;;;;;;;;;;;;;;;-149.78;100.00;50295.44;4921097;29;19931;-75
2022/06/05 01:11:40;;;;;;;;;;;;;;;-149.78;100.00;50311.06;4919333;29;19959;-75
2022/06/05 01:14:25;;;;;;;;;;;;;;;-149.78;100.00;50283.69;4925240;29;20276;-75
2022/06/05 01:16:59;;;;;;;;;;;;;;;-149.78;100.00;50303.25;4924384;28;19914;-75
2022/06/05 01:19:31;;;;;;;;;;;;;;;-149.78;100.00;50283.69;4937647;28;19915;-75
2022/06/05 01:22:06;;;;;;;;;;;;;;;-149.78;100.00;50305.22;4936534;28;20400;-75
2022/06/05 01:24:43;;;;;;;;;;;;;;;-149.78;100.00;50256.31;4923634;29;19922;-74
2022/06/05 01:27:18;;;;;;;;;;;;;;;-149.78;100.00;50311.06;4923020;28;19914;-75
2022/06/05 01:30:16;;;;;;;;;;;;;;;-149.78;100.00;50303.25;4938082;28;20385;-75
2022/06/05 01:32:53;;;;;;;;;;;;;;;-149.78;100.00;50307.16;4876752;29;19915;-75
2022/06/05 01:35:24;;;;;;;;;;;;;;;-149.78;100.00;50328.69;4922473;28;19938;-75
2022/06/05 01:37:56;;;;;;;;;;;;;;;-149.78;100.00;50299.34;4923712;29;20838;-75
2022/06/05 01:40:45;;;;;;;;;;;;;;;-149.78;100.00;50307.16;4923815;29;19933;-75
2022/06/05 01:43:16;;;;;;;;;;;;;;;-149.78;100.00;50301.28;4921884;29;19914;-75
2022/06/05 01:45:50;;;;;;;;;;;;;;;-149.78;100.00;50287.59;4919969;29;19913;-75
2022/06/05 01:48:20;;;;;;;;;;;;;;;-149.78;100.00;50314.97;4935567;28;19919;-75
2022/06/05 01:50:51;;;;;;;;;;;;;;;-149.78;100.00;50338.44;4924196;28;19914;-75
2022/06/05 01:53:19;;;;;;;;;;;;;;;-149.78;100.00;50271.97;4939489;28;19914;-75
2022/06/05 01:55:53;;;;;;;;;;;;;;;-149.78;100.00;50299.34;4920277;29;19911;-75
2022/06/05 01:58:21;;;;;;;;;;;;;;;-149.78;100.00;50309.13;4932996;28;21230;-75
2022/06/05 02:00:50;;;;;;;;;;;;;;;-149.78;100.00;50313.03;4935713;28;19914;-75
2022/06/05 02:03:42;;;;;;;;;;;;;;;-149.78;100.00;50299.34;4924056;29;19907;-76
2022/06/05 02:06:10;;;;;;;;;;;;;;;-149.78;100.00;50330.63;4881970;29;19921;-75
2022/06/05 02:08:45;;;;;;;;;;;;;;;-149.78;100.00;50322.81;4934979;28;19926;-75
2022/06/05 02:11:11;;;;;;;;;;;;;;;-149.78;100.00;50332.59;4921463;29;20420;-75
2022/06/05 02:13:36;;;;;;;;;;;;;;;-149.78;100.00;50307.16;4922652;28;19918;-75
2022/06/05 02:16:02;;;;;;;;;;;;;;;-149.78;100.00;50328.69;4931776;28;19906;-75
2022/06/05 02:18:27;;;;;;;;;;;;;;;-149.78;100.00;50332.59;4920274;29;19915;-75
2022/06/05 02:20:53;;;;;;;;;;;;;;;-149.78;100.00;50324.75;4934209;28;20372;-75
2022/06/05 02:23:22;;;;;;;;;;;;;;;-149.78;100.00;50322.81;4923838;29;19919;-75
2022/06/05 02:25:48;;;;;;;;;;;;;;;-149.78;100.00;50322.81;4923453;29;19907;-75
2022/06/05 02:28:14;;;;;;;;;;;;;;;-149.78;100.00;50326.72;4923485;29;19927;-75
2022/06/05 02:30:49;;;;;;;;;;;;;;;-149.78;100.00;50291.50;4922300;29;20029;-74
2022/06/05 02:33:30;;;;;;;;;;;;;;;-149.78;100.00;50303.25;4935170;28;19914;-75
2022/06/05 02:36:08;;;;;;;;;;;;;;;-149.78;100.00;50301.28;4934487;28;20005;-75
2022/06/05 02:39:02;;;;;;;;;;;;;;;-149.78;100.00;50283.69;4935900;28;19911;-74
2022/06/05 02:41:33;;;;;;;;;;;;;;;-149.78;100.00;50307.16;4922119;28;19974;-75
2022/06/05 02:44:30;;;;;;;;;;;;;;;-149.78;100.00;50311.06;4923091;28;19977;-75
2022/06/05 02:46:59;;;;;;;;;;;;;;;-149.78;100.00;50326.72;4924494;28;19997;-75
2022/06/05 02:49:29;;;;;;;;;;;;;;;-149.78;100.00;50330.63;4937079;28;19926;-76
2022/06/05 02:51:56;;;;;;;;;;;;;;;-149.78;100.00;50311.06;4922973;29;19958;-75
2022/06/05 02:54:25;;;;;;;;;;;;;;;-149.78;100.00;50314.97;4935837;28;19918;-75
2022/06/05 02:56:50;;;;;;;;;;;;;;;-149.78;100.00;50307.16;4923314;29;19915;-76
2022/06/05 02:59:17;;;;;;;;;;;;;;;-149.78;100.00;50332.59;4922391;29;19927;-75
2022/06/05 03:04:27;;;;;;;;;;;;;;;-149.78;100.00;50287.59;4920901;29;19926;-75
2022/06/05 03:06:52;;;;;;;;;;;;;;;-149.78;100.00;50338.44;4922565;29;19977;-75
2022/06/05 03:09:18;;;;;;;;;;;;;;;-149.78;100.00;50303.25;4923513;29;20376;-76
2022/06/05 03:11:44;;;;;;;;;;;;;;;-149.78;100.00;50303.25;4923594;29;19933;-76
2022/06/05 03:14:10;;;;;;;;;;;;;;;-149.78;100.00;50326.72;4922627;29;19923;-75
2022/06/05 03:16:35;;;;;;;;;;;;;;;-149.78;100.00;50305.22;4921412;29;19921;-76
2022/06/05 03:19:01;;;;;;;;;;;;;;;-149.78;100.00;50338.44;4922698;28;19930;-76
2022/06/05 03:21:31;;;;;;;;;;;;;;;-149.78;100.00;50314.97;4925616;29;20021;-76
2022/06/05 03:23:56;;;;;;;;;;;;;;;-149.78;100.00;50291.50;4922080;28;20013;-76
2022/06/05 03:26:22;;;;;;;;;;;;;;;-149.78;100.00;50334.53;4936811;28;20437;-75
2022/06/05 03:28:48;;;;;;;;;;;;;;;-149.78;100.00;50299.34;4923622;29;20281;-76
2022/06/05 03:31:13;;;;;;;;;;;;;;;-149.78;100.00;50283.69;4924776;29;20837;-76
2022/06/05 03:33:39;;;;;;;;;;;;;;;-149.78;100.00;50307.16;4923284;28;20526;-75
2022/06/05 03:36:09;;;;;;;;;;;;;;;-149.78;100.00;50291.50;4929705;28;20363;-76
2022/06/05 03:38:35;;;;;;;;;;;;;;;-149.78;100.00;50338.44;4924954;28;19923;-76
2022/06/05 03:41:00;;;;;;;;;;;;;;;-149.78;100.00;50334.53;4920211;29;20501;-75
2022/06/05 03:43:26;;;;;;;;;;;;;;;-149.78;100.00;50314.97;4921232;29;20388;-75
2022/06/05 03:45:59;;;;;;;;;;;;;;;-149.78;100.00;50275.88;4933389;29;20377;-75
2022/06/05 03:48:24;;;;;;;;;;;;;;;-149.78;100.00;50291.50;4920415;29;19923;-75
2022/06/05 03:50:50;;;;;;;;;;;;;;;-149.78;100.00;50340.41;4922406;29;20400;-73
2022/06/05 03:53:15;;;;;;;;;;;;;;;-149.78;100.00;50299.34;4930893;29;19929;-74
2022/06/05 03:55:41;;;;;;;;;;;;;;;-149.78;100.00;50295.44;4921485;29;19935;-74
2022/06/05 03:58:08;;;;;;;;;;;;;;;-149.78;100.00;50283.69;4917909;29;19973;-75
2022/06/05 04:00:34;;;;;;;;;;;;;;;-149.78;100.00;50291.50;4919528;29;20405;-76
2022/06/05 04:03:00;;;;;;;;;;;;;;;-149.78;100.00;50303.25;4916724;29;19919;-75
2022/06/05 04:05:25;;;;;;;;;;;;;;;-149.78;100.00;50311.06;4919298;29;19946;-76
2022/06/05 04:07:51;;;;;;;;;;;;;;;-149.78;100.00;50334.53;4919272;29;20409;-75
2022/06/05 04:10:17;;;;;;;;;;;;;;;-149.78;100.00;50318.91;4922094;29;19975;-76
2022/06/05 04:12:44;;;;;;;;;;;;;;;-149.78;100.00;50313.03;4917938;29;19981;-75
2022/06/05 04:15:11;;;;;;;;;;;;;;;-149.78;100.00;50311.06;4919703;29;20475;-75
2022/06/05 04:17:37;;;;;;;;;;;;;;;-149.78;100.00;50307.16;4921234;29;19969;-76
2022/06/05 04:20:03;;;;;;;;;;;;;;;-149.78;100.00;50334.53;4920056;29;20002;-76
2022/06/05 04:22:29;;;;;;;;;;;;;;;-149.78;100.00;50326.72;4920556;29;19922;-76
2022/06/05 04:24:55;;;;;;;;;;;;;;;-149.78;100.00;50314.97;4917665;29;19933;-76
2022/06/05 04:27:20;;;;;;;;;;;;;;;-149.78;100.00;50336.50;4922000;29;19923;-76
2022/06/05 04:29:46;;;;;;;;;;;;;;;-149.78;100.00;50313.03;4921461;29;20289;-76
2022/06/05 04:32:11;;;;;;;;;;;;;;;-149.78;100.00;50311.06;4919915;29;20401;-76
2022/06/05 04:34:37;;;;;;;;;;;;;;;-149.78;100.00;50301.28;4904402;29;19926;-76
2022/06/05 04:37:04;;;;;;;;;;;;;;;-149.78;100.00;50330.63;4921759;29;20068;-75
2022/06/05 04:39:30;;;;;;;;;;;;;;;-149.78;100.00;50322.81;4920107;29;19933;-76
2022/06/05 04:41:55;;;;;;;;;;;;;;;-149.78;100.00;50307.16;4917391;29;19927;-76
2022/06/05 04:44:21;;;;;;;;;;;;;;;-149.78;100.00;50307.16;4931227;28;19922;-76
2022/06/05 04:46:46;;;;;;;;;;;;;;;-149.78;100.00;50307.16;4934458;29;19926;-76
2022/06/05 04:49:13;;;;;;;;;;;;;;;-149.78;100.00;50330.63;4921390;28;19958;-76
2022/06/05 04:51:39;;;;;;;;;;;;;;;-149.78;100.00;50342.38;4932016;29;19923;-75
2022/06/05 04:54:06;;;;;;;;;;;;;;;-149.78;100.00;50361.91;4932745;29;19919;-76
2022/06/05 04:56:32;;;;;;;;;;;;;;;-149.78;100.00;50322.81;4921297;29;19918;-76
2022/06/05 04:58:58;;;;;;;;;;;;;;;-149.78;100.00;50326.72;4918890;29;20025;-75
2022/06/05 05:01:25;;;;;;;;;;;;;;;-149.78;100.00;50303.25;4933475;29;19978;-76
2022/06/05 05:03:52;;;;;;;;;;;;;;;-149.78;100.00;50330.63;4918680;29;19950;-76
2022/06/05 05:06:17;;;;;;;;;;;;;;;-149.78;100.00;50314.97;4920699;29;20232;-76
2022/06/05 05:08:43;;;;;;;;;;;;;;;-149.78;100.00;50336.50;4916059;29;19938;-76
2022/06/05 05:11:08;;;;;;;;;;;;;;;-149.78;100.00;50301.28;4920539;29;19926;-76
2022/06/05 05:13:34;;;;;;;;;;;;;;;-149.78;100.00;50303.25;4919395;29;19953;-76
2022/06/05 05:16:00;;;;;;;;;;;;;;;-149.78;100.00;50291.50;4896790;29;19927;-76
2022/06/05 05:18:25;;;;;;;;;;;;;;;-149.78;100.00;50287.59;4912555;29;19918;-76
2022/06/05 05:20:51;;;;;;;;;;;;;;;-149.78;100.00;50291.50;4922019;29;19926;-76
2022/06/05 05:23:19;;;;;;;;;;;;;;;-149.78;100.00;50354.09;4920829;29;19969;-76
2022/06/05 05:25:46;;;;;;;;;;;;;;;-149.78;100.00;50326.72;4916015;29;19922;-75
2022/06/05 05:28:13;;;;;;;;;;;;;;;-149.78;100.00;50330.63;4934205;28;19929;-76
2022/06/05 05:30:42;;;;;;;;;;;;;;;-149.78;100.00;50334.53;4920724;29;20531;-76
2022/06/05 05:33:08;;;;;;;;;;;;;;;-149.78;100.00;50322.81;4930885;28;19962;-76
2022/06/05 05:35:34;;;;;;;;;;;;;;;-149.78;100.00;50307.16;4918422;29;19959;-76
2022/06/05 05:37:59;;;;;;;;;;;;;;;-149.78;100.00;50309.13;4919346;28;20005;-76
2022/06/05 05:43:09;;;;;;;;;;;;;;;-149.78;100.00;50356.06;4919820;28;19985;-76
2022/06/05 05:45:35;;;;;;;;;;;;;;;-149.78;100.00;50291.50;4918960;29;19922;-76
2022/06/05 05:48:00;;;;;;;;;;;;;;;-149.78;100.00;50342.38;4915873;29;19919;-76
2022/06/05 05:50:25;;;;;;;;;;;;;;;-149.78;100.00;50330.63;4917519;29;19931;-76
2022/06/05 05:52:51;;;;;;;;;;;;;;;-149.78;100.00;50342.38;4918471;29;19926;-75
2022/06/05 05:55:19;;;;;;;;;;;;;;;-149.78;100.00;50340.41;4919229;29;19930;-75
2022/06/05 05:57:48;;;;;;;;;;;;;;;-149.78;100.00;50346.28;4932813;29;19922;-75
2022/06/05 06:00:15;;;;;;;;;;;;;;;-149.78;100.00;50313.03;4919616;29;20440;-75
2022/06/05 06:02:41;;;;;;;;;;;;;;;-149.78;100.00;50299.34;4918771;29;19914;-75
2022/06/05 06:05:08;;;;;;;;;;;;;;;-149.78;100.00;50318.91;4918295;29;19923;-75
2022/06/05 06:07:34;;;;;;;;;;;;;;;-149.78;100.00;50342.38;4914882;29;19930;-75
2022/06/05 06:09:59;;;;;;;;;;;;;;;-149.78;100.00;50342.38;4917166;29;19950;-75
2022/06/05 06:12:25;;;;;;;;;;;;;;;-149.78;100.00;50330.63;4919236;29;19923;-75
2022/06/05 06:14:51;;;;;;;;;;;;;;;-149.78;100.00;50307.16;4917579;29;19918;-75
2022/06/05 06:17:16;;;;;;;;;;;;;;;-149.78;100.00;50303.25;4930298;28;20286;-75
2022/06/05 06:19:42;;;;;;;;;;;;;;;-149.78;100.00;50342.38;4930267;28;19929;-75
2022/06/05 06:22:08;;;;;;;;;;;;;;;-149.78;100.00;50354.09;4919516;29;19926;-75
2022/06/05 06:24:34;;;;;;;;;;;;;;;-149.78;100.00;50338.44;4918120;29;19922;-75
2022/06/05 06:27:00;;;;;;;;;;;;;;;-149.78;100.00;50361.91;4898825;29;20366;-75
2022/06/05 06:29:26;;;;;;;;;;;;;;;-149.78;100.00;50363.88;4917411;29;19931;-74
2022/06/05 06:31:51;;;;;;;;;;;;;;;-149.78;100.00;50307.16;4915538;29;20020;-73
2022/06/05 06:34:16;;;;;;;;;;;;;;;-149.78;100.00;50342.38;4930503;29;19942;-73
2022/06/05 06:36:42;;;;;;;;;;;;;;;-149.78;100.00;50326.72;4931089;29;19919;-73
2022/06/05 06:39:07;;;;;;;;;;;;;;;-149.78;100.00;50338.44;4918662;29;19922;-74
2022/06/05 06:41:33;;;;;;;;;;;;;;;-149.78;100.00;50324.75;4917278;29;19927;-73
2022/06/05 06:43:58;;;;;;;;;;;;;;;-149.78;100.00;50322.81;4917299;29;19922;-72
2022/06/05 06:46:24;;;;;;;;;;;;;;;-149.78;100.00;50322.81;4917110;29;19958;-73
2022/06/05 06:48:49;;;;;;;;;;;;;;;-149.78;100.00;50309.13;4915562;29;19930;-72
2022/06/05 06:51:16;;;;;;;;;;;;;;;-149.78;100.00;50299.34;4917621;29;20496;-72
2022/06/05 06:53:42;;;;;;;;;;;;;;;-149.78;100.00;50350.19;4931428;28;19922;-71
2022/06/05 06:56:10;;;;;;;;;;;;;;;-149.78;100.00;50338.44;4919368;29;19922;-71
2022/06/05 06:58:36;;;;;;;;;;;;;;;-149.78;100.00;50338.44;4919162;29;19941;-72
2022/06/05 07:01:02;;;;;;;;;;;;;;;-149.78;100.00;50299.34;4919266;29;19949;-72
2022/06/05 07:03:28;;;;;;;;;;;;;;;-149.78;100.00;50371.69;4931007;29;19923;-72
2022/06/05 07:05:53;;;;;;;;;;;;;;;-149.78;100.00;50297.38;4915953;29;19956;-72
2022/06/05 07:08:19;;;;;;;;;;;;;;;-149.78;100.00;50336.50;4918195;29;19951;-73
2022/06/05 07:10:44;;;;;;;;;;;;;;;-149.78;100.00;50309.13;4929734;29;20508;-73
2022/06/05 07:13:10;;;;;;;;;;;;;;;-149.78;100.00;50358.00;4918011;29;19961;-73
2022/06/05 07:15:36;;;;;;;;;;;;;;;-149.78;100.00;50334.53;4916728;29;20354;-72
2022/06/05 07:18:06;;;;;;;;;;;;;;;-149.78;100.00;50358.00;4919183;29;19954;-73
2022/06/05 07:20:35;;;;;;;;;;;;;;;-149.78;100.00;50314.97;4931994;28;19922;-73
2022/06/05 07:23:01;;;;;;;;;;;;;;;-149.78;100.00;50338.44;4933178;29;19915;-73
2022/06/05 07:25:27;;;;;;;;;;;;;;;-149.78;100.00;50326.72;4919730;29;19926;-74
2022/06/05 07:27:52;;;;;;;;;;;;;;;-149.78;100.00;50365.84;4918464;29;19923;-73
2022/06/05 07:30:18;;;;;;;;;;;;;;;-149.78;100.00;50350.19;4918605;28;19930;-72
2022/06/05 07:32:44;;;;;;;;;;;;;;;-149.78;100.00;50365.84;4917777;29;19922;-73
2022/06/05 07:35:12;;;;;;;;;;;;;;;-149.78;100.00;50369.75;4918167;29;19926;-72
2022/06/05 07:37:38;;;;;;;;;;;;;;;-149.78;100.00;50314.97;4918227;29;19922;-73
2022/06/05 07:40:04;;;;;;;;;;;;;;;-149.78;100.00;50303.25;4911999;29;20005;-73
2022/06/05 07:42:30;;;;;;;;;;;;;;;-149.78;100.00;50354.09;4916645;29;19922;-73
2022/06/05 07:44:56;;;;;;;;;;;;;;;-149.78;100.00;50369.75;4913349;29;19925;-74
2022/06/05 07:47:21;;;;;;;;;;;;;;;-149.78;100.00;50326.72;4914361;29;19951;-74
2022/06/05 07:49:47;;;;;;;;;;;;;;;-149.78;100.00;50338.44;4918905;29;20437;-75
2022/06/05 07:54:56;;;;;;;;;;;;;;;-149.78;100.00;50314.97;4918077;29;20153;-74
2022/06/05 07:57:22;;;;;;;;;;;;;;;-149.78;100.00;50344.31;4914488;29;20370;-74
2022/06/05 07:59:49;;;;;;;;;;;;;;;-149.78;100.00;50342.38;4918511;29;19931;-73
2022/06/05 08:02:25;;;;;;;;;;;;;;;-149.78;100.00;50342.38;4916004;29;19923;-74
2022/06/05 08:04:51;;;;;;;;;;;;;;;-149.78;100.00;50314.97;4916611;29;19922;-73
2022/06/05 08:07:19;;;;;;;;;;;;;;;-149.78;100.00;50314.97;4916098;29;20668;-71
2022/06/05 08:09:45;;;;;;;;;;;;;;;-149.78;100.00;50314.97;4920171;29;19926;-72
2022/06/05 08:12:12;;;;;;;;;;;;;;;-149.78;100.00;50334.53;4919665;29;20208;-71
2022/06/05 08:14:39;;;;;;;;;;;;;;;-149.78;100.00;50328.69;4918566;29;19934;-71
2022/06/05 08:17:05;;;;;;;;;;;;;;;-149.78;100.00;50334.53;4919489;29;19922;-72
2022/06/05 08:19:31;;;;;;;;;;;;;;;-149.78;100.00;50346.28;4920450;29;20522;-73
2022/06/05 08:21:57;;;;;;;;;;;;;;;-149.78;100.00;50322.81;4915406;29;19934;-71
2022/06/05 08:24:22;;;;;;;;;;;;;;;-149.78;100.00;50346.28;4931276;29;19978;-72
2022/06/05 08:26:48;;;;;;;;;;;;;;;-149.78;100.00;50350.19;4918832;29;19918;-72
2022/06/05 08:29:15;;;;;;;;;;;;;;;-149.78;100.00;50322.81;4919431;29;19938;-71
2022/06/05 08:31:41;;;;;;;;;;;;;;;-149.78;100.00;50363.88;4914817;29;19927;-73
2022/06/05 08:34:07;;;;;;;;;;;;;;;-149.78;100.00;50346.28;4930450;28;19965;-73
2022/06/05 08:36:33;;;;;;;;;;;;;;;-149.78;100.00;50373.66;4930404;29;19957;-73
2022/06/05 08:41:43;;;;;;;;;;;;;;;-149.78;100.00;50350.19;4917421;28;20349;-72
2022/06/05 08:44:29;;;;;;;;;;;;;;;-149.78;100.00;50354.09;4924256;29;20009;-72
2022/06/05 08:47:15;;;;;;;;;;;;;;;-149.78;100.00;50358.00;4885607;29;19950;-73
2022/06/05 08:49:59;;;;;;;;;;;;;;;-149.78;100.00;50338.44;4916389;29;19926;-73
2022/06/05 08:52:37;;;;;;;;;;;;;;;-149.78;100.00;50350.19;4915709;29;19923;-72
2022/06/05 08:55:04;;;;;;;;;;;;;;;-149.78;100.00;50359.97;4916032;28;19930;-73
2022/06/05 08:57:35;;;;;;;;;;;;;;;-149.78;100.00;50338.44;4928187;29;20011;-73
2022/06/05 09:00:06;;;;;;;;;;;;;;;-149.78;100.00;50311.06;4916128;29;20297;-73
2022/06/05 09:02:42;;;;;;;;;;;;;;;-149.78;100.00;50346.28;4917592;29;20359;-73
2022/06/05 09:05:40;;;;;;;;;;;;;;;-149.78;100.00;50350.19;4927976;29;19981;-73
2022/06/05 09:08:25;;;;;;;;;;;;;;;-149.78;100.00;50340.41;4861370;29;19923;-73
2022/06/05 09:10:54;;;;;;;;;;;;;;;-149.78;100.00;50346.28;4918581;28;20013;-71
2022/06/05 09:13:25;;;;;;;;;;;;;;;-149.78;100.00;50275.88;4918670;29;19934;-71
2022/06/05 09:15:57;;;;;;;;;;;;;;;-149.78;100.00;50330.63;4932232;28;20380;-74
2022/06/05 09:18:24;;;;;;;;;;;;;;;-149.78;100.00;50348.22;4918434;29;20381;-72
2022/06/05 09:20:49;;;;;;;;;;;;;;;-149.78;100.00;50344.31;4932145;28;20293;-72
2022/06/05 09:23:20;;;;;;;;;;;;;;;-149.78;100.00;50358.00;4916223;29;19923;-72
2022/06/05 09:25:58;;;;;;;;;;;;;;;-149.78;100.00;50311.06;4919761;29;20018;-73
2022/06/05 09:28:23;;;;;;;;;;;;;;;-149.78;100.00;50326.72;4933680;28;20026;-73
2022/06/05 09:30:49;;;;;;;;;;;;;;;-149.78;100.00;50373.66;4919049;29;20448;-73
2022/06/05 09:33:23;;;;;;;;;;;;;;;-149.78;100.00;50328.69;4920257;29;19926;-77
2022/06/05 09:35:57;;;;;;;;;;;;;;;-149.78;100.00;50350.19;4921174;29;20491;-77
2022/06/05 09:38:28;;;;;;;;;;;;;;;-149.78;100.00;50350.19;4913179;29;19919;-73
2022/06/05 09:40:54;;;;;;;;;;;;;;;-149.78;100.00;50365.84;4916812;29;19933;-72
2022/06/05 09:43:34;;;;;;;;;;;;;;;-149.78;100.00;50330.63;4918406;29;20251;-73
2022/06/05 09:46:08;;;;;;;;;;;;;;;-149.78;100.00;50356.06;4918243;29;20402;-73
2022/06/05 09:48:35;;;;;;;;;;;;;;;-149.78;100.00;50361.91;4916992;29;19967;-71
2022/06/05 09:51:01;;;;;;;;;;;;;;;-149.78;100.00;50348.22;4921904;29;19958;-72
2022/06/05 09:53:35;;;;;;;;;;;;;;;-149.78;100.00;50346.28;4949201;28;20267;-71
2022/06/05 09:56:12;;;;;;;;;;;;;;;-149.78;100.00;50338.44;4933540;29;19915;-71
2022/06/05 09:58:57;;;;;;;;;;;;;;;-149.78;100.00;50326.72;4932936;29;19961;-71
2022/06/05 10:01:34;;;;;;;;;;;;;;;-149.78;100.00;50346.28;4932501;29;19925;-71
2022/06/05 10:04:03;;;;;;;;;;;;;;;-149.78;100.00;50342.38;4931016;29;19915;-71
2022/06/05 10:06:35;;;;;;;;;;;;;;;-149.78;100.00;50322.81;4912361;29;19922;-71
2022/06/05 10:09:04;;;;;;;;;;;;;;;-149.78;100.00;50356.06;4933335;29;19947;-71
2022/06/05 10:11:30;;;;;;;;;;;;;;;-149.78;100.00;50346.28;4926471;29;19926;-70
2022/06/05 10:14:03;;;;;;;;;;;;;;;-149.78;100.00;50314.97;4918328;29;20376;-71
2022/06/05 10:16:28;;;;;;;;;;;;;;;-149.78;100.00;50354.09;4917301;29;19929;-71
2022/06/05 10:18:58;;;;;;;;;;;;;;;-149.78;100.00;50334.53;4930378;29;19922;-71
2022/06/05 10:21:31;;;;;;;;;;;;;;;-149.78;100.00;50338.44;4919661;29;19960;-70
2022/06/05 10:24:03;;;;;;;;;;;;;;;-149.78;100.00;50330.63;4917036;29;19927;-70
2022/06/05 10:26:31;;;;;;;;;;;;;;;-149.78;100.00;50326.72;4915238;29;19930;-71
2022/06/05 10:29:36;;;;;;;;;;;;;;;-149.78;100.00;50342.38;4917204;29;20330;-70
2022/06/05 10:32:05;;;;;;;;;;;;;;;-149.78;100.00;50342.38;4838965;29;20030;-71
2022/06/05 10:34:37;;;;;;;;;;;;;;;-149.78;100.00;50330.63;4838513;29;19935;-70
2022/06/05 10:37:02;;;;;;;;;;;;;;;-149.78;100.00;50311.06;4877414;29;20932;-70
2022/06/05 10:39:27;;;;;;;;;;;;;;;-149.78;100.00;50330.63;4917236;29;20020;-70
2022/06/05 10:41:53;;;;;;;;;;;;;;;-149.78;100.00;50326.72;4927634;29;20386;-70
2022/06/05 10:44:18;;;;;;;;;;;;;;;-149.78;100.00;50373.66;4916879;29;19919;-70
2022/06/05 10:46:54;;;;;;;;;;;;;;;-149.78;100.00;50377.56;4916337;29;19918;-70
2022/06/05 10:49:40;;;;;;;;;;;;;;;-149.78;100.00;50342.38;4913241;29;20029;-70
2022/06/05 10:52:28;;;;;;;;;;;;;;;-149.78;100.00;50344.31;4922088;29;20460;-70
2022/06/05 10:54:54;;;;;;;;;;;;;;;-149.78;100.00;50303.25;4931493;28;19954;-71
2022/06/05 10:57:27;;;;;;;;;;;;;;;-149.78;100.00;50377.56;4917608;29;19938;-70
2022/06/05 11:00:11;;;;;;;;;;;;;;;-149.78;100.00;50311.06;4934059;28;19973;-70
2022/06/05 11:02:39;;;;;;;;;;;;;;;-149.78;100.00;50358.00;4918992;29;20270;-70
2022/06/05 11:05:24;;;;;;;;;;;;;;;-149.78;100.00;50358.00;4916958;29;19938;-70
2022/06/05 11:07:52;;;;;;;;;;;;;;;-149.78;100.00;50334.53;4919987;29;20259;-70
2022/06/05 11:13:39;;;;;;;;;;;;;;;-149.78;100.00;50318.91;4919745;29;20022;-70
2022/06/05 11:13:40;;;;;;;;;;;;;;;-149.78;100.00;50373.66;4919414;29;19915;-70
2022/06/05 11:16:15;;;;;;;;;;;;;;;-149.78;100.00;50328.69;4918631;29;19923;-71
2022/06/05 11:18:52;;;;;;;;;;;;;;;-149.78;100.00;50314.97;4931963;28;20373;-71
2022/06/05 11:21:18;;;;;;;;;;;;;;;-149.78;100.00;50328.69;4921178;29;20436;-71
2022/06/05 11:23:48;;;;;;;;;;;;;;;-149.78;100.00;50338.44;4933114;28;20440;-71
2022/06/05 11:26:17;;;;;;;;;;;;;;;-149.78;100.00;50318.91;4932233;28;19930;-70
2022/06/05 11:29:01;;;;;;;;;;;;;;;-149.78;100.00;50346.28;4920058;29;20504;-71
2022/06/05 11:31:36;;;;;;;;;;;;;;;-149.78;100.00;50359.97;4920335;29;20862;-71
2022/06/05 11:34:16;;;;;;;;;;;;;;;-149.78;100.00;50350.19;4919335;29;20274;-72
2022/06/05 11:36:45;;;;;;;;;;;;;;;-149.78;100.00;50375.63;4918813;28;20679;-72
2022/06/05 11:39:24;;;;;;;;;;;;;;;-149.78;100.00;50346.28;4921149;28;20323;-71
2022/06/05 11:41:49;;;;;;;;;;;;;;;-149.78;100.00;50379.53;4922936;29;19932;-71
2022/06/05 11:44:22;;;;;;;;;;;;;;;-149.78;100.00;50340.41;4922720;29;20009;-71
2022/06/05 11:46:51;;;;;;;;;;;;;;;-149.78;100.00;50342.38;4922180;29;19922;-71
2022/06/05 11:49:20;;;;;;;;;;;;;;;-149.78;100.00;50318.91;4923859;28;19966;-71
2022/06/05 11:51:46;;;;;;;;;;;;;;;-149.78;100.00;50322.81;4923877;29;20767;-71
2022/06/05 11:54:15;;;;;;;;;;;;;;;-149.78;100.00;50342.38;4931421;28;20639;-71
2022/06/05 11:56:40;;;;;;;;;;;;;;;-149.78;100.00;50346.28;4915906;29;20009;-71
2022/06/05 11:59:23;;;;;;;;;;;;;;;-149.78;100.00;50373.66;4931670;28;20015;-71
2022/06/05 12:02:10;;;;;;;;;;;;;;;-149.78;100.00;50359.97;4929911;28;19922;-71
2022/06/05 12:04:38;;;;;;;;;;;;;;;-149.78;100.00;50350.19;4895020;29;19923;-71
2022/06/05 12:07:06;;;;;;;;;;;;;;;-149.78;100.00;50354.09;4934287;28;19954;-72
2022/06/05 12:09:42;;;;;;;;;;;;;;;-149.78;100.00;50311.06;4935975;28;19923;-71
2022/06/05 12:12:17;;;;;;;;;;;;;;;-149.78;100.00;50365.84;4935816;28;19964;-71
2022/06/05 12:14:49;;;;;;;;;;;;;;;-149.78;100.00;50330.63;4935179;28;19965;-72
2022/06/05 12:17:23;;;;;;;;;;;;;;;-149.78;100.00;50350.19;4934712;28;19921;-72
2022/06/05 12:20:06;;;;;;;;;;;;;;;-149.78;100.00;50377.56;4935033;28;20374;-71
2022/06/05 12:22:42;;;;;;;;;;;;;;;-149.78;100.00;50369.75;4922876;29;19922;-71
2022/06/05 12:25:10;;;;;;;;;;;;;;;-149.78;100.00;50336.50;4920441;29;19923;-72
2022/06/05 12:28:03;;;;;;;;;;;;;;;-149.78;100.00;50354.09;4920378;29;19923;-71
2022/06/05 12:30:32;;;;;;;;;;;;;;;-149.78;100.00;50334.53;4903080;29;20116;-71
2022/06/05 12:33:05;;;;;;;;;;;;;;;-149.78;100.00;50350.19;4922669;29;20340;-73
2022/06/05 12:35:33;;;;;;;;;;;;;;;-149.78;100.00;50326.72;4918063;29;19961;-72
2022/06/05 12:38:12;;;;;;;;;;;;;;;-149.78;100.00;50352.16;4937146;28;19922;-71
2022/06/05 12:40:41;;;;;;;;;;;;;;;-149.78;100.00;50352.16;4918761;29;20021;-72
2022/06/05 12:43:10;;;;;;;;;;;;;;;-149.78;100.00;50354.09;4913292;29;21477;-72